Time;durP1;ratioP1;P1;durP2;ratioP2;P2;SDS_P1;SDS_P2;PMS_P1;PMS_P2;Temp;Humidity;BMP_temperature;BMP_pressure;BME280_temperature;BME280_humidity;BME280_pressure;Samples;Min_cycle;Max_cycle;Signal;HPM_P1;HPM_P2
2022/09/26 00:01:43;;;;;;;7.80;5.65;;;;;;;-145.49;100.00;62790.56;4954295;28;20046;-83
2022/09/26 00:04:19;;;;;;;10.07;6.70;;;;;;;-145.49;100.00;62790.56;4956334;28;20043;-83
2022/09/26 00:06:54;;;;;;;10.75;6.13;;;;;;;-145.49;100.00;62790.56;4969808;28;20031;-83
2022/09/26 00:09:25;;;;;;;9.88;7.45;;;;;;;-145.49;100.00;62790.56;4952884;28;20032;-83
2022/09/26 00:11:52;;;;;;;7.70;6.05;;;;;;;-145.49;100.00;62790.56;4937914;29;20050;-83
2022/09/26 00:14:24;;;;;;;12.13;7.40;;;;;;;-145.49;100.00;62790.56;4953605;28;20031;-83
2022/09/26 00:16:51;;;;;;;15.02;8.60;;;;;;;-145.49;100.00;62790.56;4953951;29;20031;-83
2022/09/26 00:19:22;;;;;;;11.55;7.50;;;;;;;-145.49;100.00;62790.56;4937720;28;20039;-83
2022/09/26 00:21:50;;;;;;;8.90;5.35;;;;;;;-145.49;100.00;62790.56;4970040;28;20110;-83
2022/09/26 00:24:17;;;;;;;35.90;7.60;;;;;;;-145.49;100.00;62790.56;4951114;28;20039;-83
2022/09/26 00:26:43;;;;;;;8.82;7.07;;;;;;;-145.49;100.00;62790.56;4959504;28;20034;-83
2022/09/26 00:29:13;;;;;;;10.75;6.85;;;;;;;-145.49;100.00;62790.56;4969180;28;20035;-83
2022/09/26 00:31:44;;;;;;;10.07;6.95;;;;;;;-145.49;100.00;62790.56;4954914;29;20453;-83
2022/09/26 00:34:15;;;;;;;11.48;7.32;;;;;;;-145.49;100.00;62790.56;4948066;28;20035;-83
2022/09/26 00:36:46;;;;;;;10.10;7.68;;;;;;;-145.49;100.00;62790.56;4953942;28;20043;-83
2022/09/26 00:39:15;;;;;;;;;;;;;;;-145.49;100.00;62790.56;4967345;28;20049;-83
2022/09/26 00:41:41;;;;;;;10.27;7.13;;;;;;;-145.49;100.00;62790.56;4966474;28;20381;-83
2022/09/26 00:44:47;;;;;;;10.57;7.68;;;;;;;-145.49;100.00;62790.56;4966680;28;20039;-83
2022/09/26 00:47:22;;;;;;;10.07;8.18;;;;;;;-145.49;100.00;62790.56;4912423;29;20036;-83
2022/09/26 00:49:51;;;;;;;11.00;8.25;;;;;;;-145.49;100.00;62790.56;4932503;29;20066;-83
2022/09/26 00:52:31;;;;;;;10.15;6.30;;;;;;;-145.49;100.00;62790.56;4949613;29;20058;-83
2022/09/26 00:55:01;;;;;;;13.05;7.97;;;;;;;-145.49;100.00;62790.56;4953397;28;20035;-83
2022/09/26 00:57:59;;;;;;;7.78;6.00;;;;;;;-145.49;100.00;62790.56;4953325;28;20027;-83
2022/09/26 01:00:28;;;;;;;9.48;6.95;;;;;;;-145.49;100.00;62790.56;4946757;28;20043;-83
2022/09/26 01:02:55;;;;;;;11.27;7.60;;;;;;;-145.49;100.00;62790.56;4952384;28;20047;-83
2022/09/26 01:05:26;;;;;;;12.85;8.25;;;;;;;-145.49;100.00;62790.56;4936720;28;20035;-83
2022/09/26 01:08:00;;;;;;;12.75;8.00;;;;;;;-145.49;100.00;62790.56;4939932;28;20522;-83
2022/09/26 01:10:30;;;;;;;10.93;8.23;;;;;;;-145.49;100.00;62790.56;4952233;28;20034;-84
2022/09/26 01:13:00;;;;;;;11.73;8.93;;;;;;;-145.49;100.00;62790.56;4951852;28;20027;-83
2022/09/26 01:15:28;;;;;;;15.30;8.25;;;;;;;-145.49;100.00;62790.56;4966832;28;20039;-83
2022/09/26 01:17:59;;;;;;;10.20;7.63;;;;;;;-145.49;100.00;62790.56;4951488;28;20035;-84
2022/09/26 01:20:28;;;;;;;16.13;8.77;;;;;;;-145.49;100.00;62790.56;4966930;28;20046;-84
2022/09/26 01:23:41;;;;;;;11.63;7.53;;;;;;;-145.49;100.00;62790.56;4968265;28;20043;-84
2022/09/26 01:26:27;;;;;;;11.10;6.70;;;;;;;-145.49;100.00;62790.56;4929226;29;20059;-83
2022/09/26 01:29:39;;;;;;;12.95;8.02;;;;;;;-145.49;100.00;62790.56;4965467;28;20035;-83
2022/09/26 01:32:51;;;;;;;10.95;7.57;;;;;;;-145.49;100.00;62790.56;4968083;28;20051;-83
2022/09/26 01:35:41;;;;;;;12.23;6.55;;;;;;;-145.49;100.00;62790.56;4962637;28;20047;-84
2022/09/26 01:38:29;;;;;;;7.55;6.25;;;;;;;-145.49;100.00;62790.56;4949921;28;20374;-84
2022/09/26 01:41:31;;;;;;;9.60;8.55;;;;;;;-145.49;100.00;62790.56;4939926;29;20074;-84
2022/09/26 01:44:20;;;;;;;8.23;6.28;;;;;;;-145.49;100.00;62790.56;4967672;28;20043;-83
2022/09/26 01:47:17;;;;;;;8.63;7.65;;;;;;;-145.49;100.00;62790.56;4968237;28;20141;-84
2022/09/26 01:49:53;;;;;;;9.73;7.47;;;;;;;-145.49;100.00;62790.56;4944330;28;20417;-84
2022/09/26 01:52:44;;;;;;;11.90;8.23;;;;;;;-145.49;100.00;62790.56;4966659;28;20055;-84
2022/09/26 01:55:18;;;;;;;10.75;7.45;;;;;;;-145.49;100.00;62790.56;4957138;28;20066;-84
2022/09/26 01:58:08;;;;;;;10.80;5.95;;;;;;;-145.49;100.00;62790.56;4967199;28;20058;-84
2022/09/26 02:00:39;;;;;;;8.90;6.10;;;;;;;-145.49;100.00;62790.56;4949340;29;20035;-84
2022/09/26 02:03:13;;;;;;;9.55;6.72;;;;;;;-145.49;100.00;62790.56;4948601;29;20042;-83
2022/09/26 02:05:59;;;;;;;10.15;7.30;;;;;;;-145.49;100.00;62790.56;4967019;28;20050;-84
2022/09/26 02:09:01;;;;;;;9.88;7.15;;;;;;;-145.49;100.00;62790.56;4966485;28;20414;-83
2022/09/26 02:11:34;;;;;;;8.65;6.07;;;;;;;-145.49;100.00;62790.56;4910235;29;20059;-83
2022/09/26 02:14:05;;;;;;;7.97;6.28;;;;;;;-145.49;100.00;62790.56;4951979;28;20038;-83
2022/09/26 02:16:40;;;;;;;10.15;6.95;;;;;;;-145.49;100.00;62790.56;4956810;28;20401;-83
2022/09/26 02:19:23;;;;;;;8.93;5.80;;;;;;;-145.49;100.00;62790.56;4964934;28;20630;-83
2022/09/26 02:21:53;;;;;;;6.13;5.53;;;;;;;-145.49;100.00;62790.56;4955234;28;20047;-83
2022/09/26 02:24:22;;;;;;;7.82;5.28;;;;;;;-145.49;100.00;62790.56;4951637;29;20044;-83
2022/09/26 02:26:51;;;;;;;7.40;4.95;;;;;;;-145.49;100.00;62790.56;4966638;28;20058;-83
2022/09/26 02:29:26;;;;;;;6.68;5.13;;;;;;;-145.49;100.00;62790.56;4934676;29;20043;-83
2022/09/26 02:31:58;;;;;;;8.63;6.47;;;;;;;-145.49;100.00;62790.56;4967533;28;20046;-83
2022/09/26 02:34:29;;;;;;;7.85;5.80;;;;;;;-145.49;100.00;62790.56;4949889;29;20042;-83
2022/09/26 02:37:00;;;;;;;7.30;5.05;;;;;;;-145.49;100.00;62790.56;4951748;28;20035;-83
2022/09/26 02:39:33;;;;;;;7.45;5.07;;;;;;;-145.49;100.00;62790.56;4964748;28;20035;-83
2022/09/26 02:42:27;;;;;;;8.13;5.75;;;;;;;-145.49;100.00;62790.56;4965915;28;20039;-83
2022/09/26 02:45:24;;;;;;;10.13;6.47;;;;;;;-145.49;100.00;62790.56;4953351;28;20397;-83
2022/09/26 02:48:18;;;;;;;9.00;6.47;;;;;;;-145.49;100.00;62790.56;4951812;29;20054;-83
2022/09/26 02:50:47;;;;;;;6.30;5.53;;;;;;;-145.49;100.00;62790.56;4965328;28;21777;-83
2022/09/26 02:53:23;;;;;;;11.32;6.10;;;;;;;-145.49;100.00;62790.56;4960592;28;20291;-83
2022/09/26 02:56:22;;;;;;;12.43;7.45;;;;;;;-145.49;100.00;62790.56;4953047;28;20050;-83
2022/09/26 02:59:00;;;;;;;10.65;6.80;;;;;;;-145.49;100.00;62790.56;4950131;28;20039;-83
2022/09/26 03:01:47;;;;;;;18.67;8.23;;;;;;;-145.49;100.00;62790.56;4950797;28;20042;-83
2022/09/26 03:04:30;;;;;;;40.47;10.32;;;;;;;-145.49;100.00;62790.56;4963182;28;20042;-83
2022/09/26 03:07:09;;;;;;;15.70;8.18;;;;;;;-145.49;100.00;62790.56;4968779;28;20540;-82
2022/09/26 03:09:37;;;;;;;10.27;6.57;;;;;;;-145.49;100.00;62790.56;4968728;28;20039;-83
2022/09/26 03:12:09;;;;;;;14.45;8.63;;;;;;;-145.49;100.00;62790.56;4970200;28;20034;-83
2022/09/26 03:14:43;;;;;;;13.13;7.82;;;;;;;-145.49;100.00;62790.56;4956657;29;20519;-83
2022/09/26 03:17:10;;;;;;;12.40;8.35;;;;;;;-145.49;100.00;62790.56;4969895;28;20044;-83
2022/09/26 03:19:45;;;;;;;12.35;10.05;;;;;;;-145.49;100.00;62790.56;4953454;28;20054;-83
2022/09/26 03:22:15;;;;;;;10.45;8.02;;;;;;;-145.49;100.00;62790.56;4970113;28;20034;-83
2022/09/26 03:24:42;;;;;;;10.07;8.20;;;;;;;-145.49;100.00;62790.56;4937988;28;20047;-83
2022/09/26 03:27:11;;;;;;;10.00;8.48;;;;;;;-145.49;100.00;62790.56;4957171;28;20031;-84
2022/09/26 03:29:42;;;;;;;16.27;8.55;;;;;;;-145.49;100.00;62790.56;4953314;28;20512;-84
2022/09/26 03:32:17;;;;;;;10.63;5.72;;;;;;;-145.49;100.00;62790.56;4965072;28;20046;-84
2022/09/26 03:34:43;;;;;;;9.40;7.70;;;;;;;-145.49;100.00;62790.56;4953145;29;20042;-85
2022/09/26 03:37:12;;;;;;;10.30;7.57;;;;;;;-145.49;100.00;62790.56;4971047;28;20039;-84
2022/09/26 03:39:42;;;;;;;11.48;6.88;;;;;;;-145.49;100.00;62790.56;4968042;28;20035;-84
2022/09/26 03:42:16;;;;;;;10.80;6.85;;;;;;;-145.49;100.00;62790.56;4963091;28;20485;-84
2022/09/26 03:44:49;;;;;;;13.07;7.70;;;;;;;-145.49;100.00;62790.56;4953085;29;20050;-84
2022/09/26 03:47:42;;;;;;;8.32;7.05;;;;;;;-145.49;100.00;62790.56;4961714;28;20390;-83
2022/09/26 03:50:16;;;;;;;8.75;6.90;;;;;;;-145.49;100.00;62790.56;4951029;28;20183;-84
2022/09/26 03:52:42;;;;;;;9.88;7.05;;;;;;;-145.49;100.00;62790.56;4965582;28;20499;-84
2022/09/26 03:55:10;;;;;;;20.02;9.98;;;;;;;-145.49;100.00;62790.56;4954452;28;20039;-84
2022/09/26 03:57:39;;;;;;;16.92;8.77;;;;;;;-145.49;100.00;62790.56;4935335;29;20050;-83
2022/09/26 04:00:17;;;;;;;10.25;9.05;;;;;;;-145.49;100.00;62790.56;4964322;28;20039;-84
2022/09/26 04:02:46;;;;;;;32.03;9.80;;;;;;;-145.49;100.00;62790.56;4951186;29;20043;-84
2022/09/26 04:05:34;;;;;;;88.13;10.82;;;;;;;-145.49;100.00;62790.56;4954488;28;20485;-84
2022/09/26 04:08:01;;;;;;;16.10;8.30;;;;;;;-145.49;100.00;62790.56;4936447;29;20046;-85
2022/09/26 04:10:28;;;;;;;20.23;9.13;;;;;;;-145.49;100.00;62790.56;4967377;28;20055;-84
2022/09/26 04:12:58;;;;;;;10.38;7.43;;;;;;;-145.49;100.00;62790.56;4968528;28;20039;-84
2022/09/26 04:15:28;;;;;;;12.93;9.35;;;;;;;-145.49;100.00;62790.56;4969996;28;20054;-89
2022/09/26 04:18:10;;;;;;;13.10;9.07;;;;;;;-145.49;100.00;62790.56;4969253;28;20035;-84
2022/09/26 04:20:38;;;;;;;15.55;9.02;;;;;;;-145.49;100.00;62790.56;4968969;28;20058;-85
2022/09/26 04:23:07;;;;;;;11.30;8.68;;;;;;;-145.49;100.00;62790.56;4970705;28;20045;-85
2022/09/26 04:25:36;;;;;;;10.35;8.27;;;;;;;-145.49;100.00;62790.56;4960406;28;20047;-85
2022/09/26 04:28:10;;;;;;;12.50;9.88;;;;;;;-145.49;100.00;62790.56;4952232;29;20050;-85
2022/09/26 04:30:38;;;;;;;10.88;7.65;;;;;;;-145.49;100.00;62790.56;4972269;28;20485;-85
2022/09/26 04:33:05;;;;;;;11.10;8.07;;;;;;;-145.49;100.00;62790.56;4971979;28;20023;-85
2022/09/26 04:35:31;;;;;;;12.07;9.40;;;;;;;-145.49;100.00;62790.56;4958699;28;20039;-84
2022/09/26 04:38:03;;;;;;;10.20;8.18;;;;;;;-145.49;100.00;62790.56;4966479;28;20031;-84
2022/09/26 04:40:32;;;;;;;10.35;7.72;;;;;;;-145.49;100.00;62790.56;4976201;28;20027;-83
2022/09/26 04:43:05;;;;;;;11.57;8.68;;;;;;;-145.49;100.00;62790.56;4970951;28;20043;-82
2022/09/26 04:45:34;;;;;;;13.80;8.02;;;;;;;-145.49;100.00;62790.56;4988339;28;20034;-83
2022/09/26 04:48:01;;;;;;;15.68;8.43;;;;;;;-145.49;100.00;62790.56;4965712;28;20040;-84
2022/09/26 04:50:50;;;;;;;11.75;8.05;;;;;;;-145.49;100.00;62790.56;4939859;28;20490;-84
2022/09/26 04:53:18;;;;;;;11.88;7.53;;;;;;;-145.49;100.00;62790.56;4968224;28;20027;-84
2022/09/26 04:55:56;;;;;;;9.55;7.47;;;;;;;-145.49;100.00;62790.56;4953852;28;20066;-84
2022/09/26 04:58:22;;;;;;;12.98;8.50;;;;;;;-145.49;100.00;62790.56;4963109;28;20043;-83
2022/09/26 05:00:49;;;;;;;11.55;7.85;;;;;;;-145.49;100.00;62790.56;4969011;28;20401;-83
2022/09/26 05:03:28;;;;;;;13.20;9.23;;;;;;;-145.49;100.00;62790.56;4966363;28;20039;-83
2022/09/26 05:05:55;;;;;;;9.43;7.82;;;;;;;-145.49;100.00;62790.56;4953668;23;20058;-74
2022/09/26 05:08:22;;;;;;;13.57;9.57;;;;;;;-145.49;100.00;62790.56;4946973;28;20054;-74
2022/09/26 05:10:54;;;;;;;11.82;10.07;;;;;;;-145.49;100.00;62790.56;4967946;28;20046;-74
2022/09/26 05:13:27;;;;;;;18.83;10.05;;;;;;;-145.49;100.00;62790.56;4974649;28;20053;-74
2022/09/26 05:15:54;;;;;;;15.45;8.77;;;;;;;-145.49;100.00;62790.56;4940328;28;20097;-74
2022/09/26 05:18:27;;;;;;;12.38;9.25;;;;;;;-145.49;100.00;62790.56;4965101;28;20035;-74
2022/09/26 05:20:55;;;;;;;9.88;7.97;;;;;;;-145.49;100.00;62790.56;4966424;28;20046;-74
2022/09/26 05:26:43;;;;;;;11.52;9.00;;;;;;;-145.49;100.00;62790.56;4975363;28;20047;-74
2022/09/26 05:29:10;;;;;;;11.52;9.23;;;;;;;-145.49;100.00;62790.56;4945746;29;20035;-74
2022/09/26 05:31:53;;;;;;;18.73;9.48;;;;;;;-145.49;100.00;62790.56;4952843;28;20046;-74
2022/09/26 05:34:23;;;;;;;8.65;7.80;;;;;;;-145.49;100.00;62790.56;4972713;28;20385;-75
2022/09/26 05:36:52;;;;;;;11.25;8.25;;;;;;;-145.49;100.00;62790.56;4971009;28;20047;-74
2022/09/26 05:42:11;;;;;;;13.38;10.40;;;;;;;-145.49;100.00;62790.56;4962550;28;20047;-74
2022/09/26 05:44:38;;;;;;;13.90;9.88;;;;;;;-145.49;100.00;62790.56;4967909;28;20035;-74
2022/09/26 05:47:07;;;;;;;14.02;8.48;;;;;;;-145.49;100.00;62790.56;4953353;28;20043;-74
2022/09/26 05:49:35;;;;;;;12.48;9.80;;;;;;;-145.49;100.00;62790.56;4976210;28;20485;-74
2022/09/26 05:52:06;;;;;;;14.48;9.15;;;;;;;-145.49;100.00;62790.56;4964823;28;20465;-74
2022/09/26 05:54:32;;;;;;;10.02;8.32;;;;;;;-145.49;100.00;62790.56;4944804;28;20038;-74
2022/09/26 05:57:01;;;;;;;15.65;11.02;;;;;;;-145.49;100.00;62790.56;4960465;28;20039;-74
2022/09/26 05:59:27;;;;;;;12.93;9.90;;;;;;;-145.49;100.00;62790.56;4952913;29;20042;-74
2022/09/26 06:02:14;;;;;;;13.90;10.90;;;;;;;-145.49;100.00;62790.56;4951415;28;20031;-75
2022/09/26 06:05:06;;;;;;;30.63;11.65;;;;;;;-145.49;100.00;62790.56;4952641;28;20043;-74
2022/09/26 06:08:00;;;;;;;14.80;9.98;;;;;;;-145.49;100.00;62790.56;4955230;28;20059;-73
2022/09/26 06:10:46;;;;;;;15.30;10.75;;;;;;;-145.49;100.00;62790.56;4954152;28;20050;-74
2022/09/26 06:13:14;;;;;;;14.15;11.93;;;;;;;-145.49;100.00;62790.56;4958642;28;20042;-74
2022/09/26 06:16:07;;;;;;;17.23;12.15;;;;;;;-145.49;100.00;62790.56;4963560;28;20039;-75
2022/09/26 06:18:39;;;;;;;14.00;12.55;;;;;;;-145.49;100.00;62790.56;4960641;28;20055;-75
2022/09/26 06:21:10;;;;;;;15.68;12.50;;;;;;;-145.49;100.00;62790.56;4971868;28;20038;-74
2022/09/26 06:23:38;;;;;;;12.80;11.43;;;;;;;-145.49;100.00;62790.56;4950542;28;20035;-74
2022/09/26 06:26:11;;;;;;;22.70;13.60;;;;;;;-145.49;100.00;62790.56;4963610;28;20044;-74
2022/09/26 06:28:40;;;;;;;16.95;11.45;;;;;;;-145.49;100.00;62790.56;4965835;28;20062;-74
2022/09/26 06:31:10;;;;;;;16.50;12.60;;;;;;;-145.49;100.00;62790.56;4949562;28;20410;-73
2022/09/26 06:34:08;;;;;;;13.20;11.18;;;;;;;-145.49;100.00;62790.56;4916834;28;20044;-75
2022/09/26 06:37:07;;;;;;;24.88;12.90;;;;;;;-145.49;100.00;62790.56;4948959;28;20044;-75
2022/09/26 06:39:39;;;;;;;18.85;14.10;;;;;;;-145.49;100.00;62790.56;4966113;28;20061;-74
2022/09/26 06:42:08;;;;;;;18.05;11.23;;;;;;;-145.49;100.00;62790.56;4933654;29;20050;-74
2022/09/26 06:44:47;;;;;;;17.13;12.88;;;;;;;-145.49;100.00;62790.56;4951336;28;20035;-74
2022/09/26 06:47:30;;;;;;;21.00;15.68;;;;;;;-145.49;100.00;62790.56;4959980;28;20036;-74
2022/09/26 06:50:24;;;;;;;16.02;14.40;;;;;;;-145.49;100.00;62790.56;4953281;28;20047;-74
2022/09/26 06:53:00;;;;;;;15.18;13.10;;;;;;;-145.49;100.00;62790.56;4966154;28;20043;-74
2022/09/26 06:55:29;;;;;;;15.67;10.73;;;;;;;-145.49;100.00;62790.56;4960977;28;20035;-73
2022/09/26 06:57:57;;;;;;;13.18;11.43;;;;;;;-145.49;100.00;62790.56;4966818;28;20055;-75
2022/09/26 07:00:32;;;;;;;13.90;11.88;;;;;;;-145.49;100.00;62790.56;4966273;28;20046;-75
2022/09/26 07:03:07;;;;;;;19.63;13.70;;;;;;;-145.49;100.00;62790.56;4965590;28;20039;-75
2022/09/26 07:05:57;;;;;;;18.65;13.10;;;;;;;-145.49;100.00;62790.56;4947354;28;20516;-73
2022/09/26 07:08:27;;;;;;;16.95;12.20;;;;;;;-145.49;100.00;62790.56;4948891;28;20405;-74
2022/09/26 07:11:03;;;;;;;14.38;11.95;;;;;;;-145.49;100.00;62790.56;4974094;28;20039;-73
2022/09/26 07:13:30;;;;;;;18.25;11.05;;;;;;;-145.49;100.00;62790.56;4951738;29;20042;-74
2022/09/26 07:15:57;;;;;;;16.65;11.45;;;;;;;-145.49;100.00;62790.56;4951900;29;20035;-74
2022/09/26 07:18:54;;;;;;;11.93;10.55;;;;;;;-145.49;100.00;62790.56;4934880;28;20051;-74
2022/09/26 07:21:34;;;;;;;10.37;9.03;;;;;;;-145.49;100.00;62790.56;4967003;28;20035;-75
2022/09/26 07:24:23;;;;;;;11.82;8.98;;;;;;;-145.49;100.00;62790.56;4959186;28;20656;-74
2022/09/26 07:26:50;;;;;;;12.05;7.80;;;;;;;-145.49;100.00;62790.56;4953824;28;20058;-75
2022/09/26 07:29:17;;;;;;;11.32;7.60;;;;;;;-145.49;100.00;62790.56;4950891;28;20035;-76
2022/09/26 07:31:43;;;;;;;10.35;8.25;;;;;;;-145.49;100.00;62790.56;4966221;28;20039;-75
2022/09/26 07:34:23;;;;;;;10.35;7.18;;;;;;;-145.49;100.00;62790.56;4951521;28;20039;-74
2022/09/26 07:36:51;;;;;;;11.10;7.30;;;;;;;-145.49;100.00;62790.56;4975006;28;20050;-74
2022/09/26 07:39:19;;;;;;;11.38;8.00;;;;;;;-145.49;100.00;62790.56;4953918;28;20042;-74
2022/09/26 07:41:52;;;;;;;9.27;6.15;;;;;;;-145.49;100.00;62790.56;4948709;28;20031;-74
2022/09/26 07:44:21;;;;;;;9.70;7.75;;;;;;;-145.49;100.00;62790.56;4963670;28;20043;-74
2022/09/26 07:52:44;;;;;;;14.15;7.13;;;;;;;-145.49;100.00;62790.56;4962797;28;20400;-74
2022/09/26 07:56:04;;;;;;;11.18;7.65;;;;;;;-145.49;100.00;62790.56;4943368;28;20051;-74
2022/09/26 07:58:37;;;;;;;9.45;7.28;;;;;;;-145.49;100.00;62790.56;4934227;29;20054;-75
2022/09/26 08:01:24;;;;;;;9.18;6.65;;;;;;;-145.49;100.00;62790.56;4967203;28;20509;-75
2022/09/26 08:04:28;;;;;;;7.82;5.85;;;;;;;-145.49;100.00;62790.56;4955225;28;20035;-74
2022/09/26 08:06:56;;;;;;;7.60;6.47;;;;;;;-145.49;100.00;62790.56;4964020;28;20050;-74
2022/09/26 08:09:27;;;;;;;7.25;5.47;;;;;;;-145.49;100.00;62790.56;4967354;28;20481;-75
2022/09/26 08:12:23;;;;;;;8.00;6.07;;;;;;;-145.49;100.00;62790.56;4918887;28;20384;-75
2022/09/26 08:15:18;;;;;;;9.35;5.90;;;;;;;-145.49;100.00;62790.56;4966589;28;20043;-74
2022/09/26 08:17:44;;;;;;;8.00;5.50;;;;;;;-145.49;100.00;62790.56;4956161;28;20039;-74
2022/09/26 08:20:11;;;;;;;6.55;5.38;;;;;;;-145.49;100.00;62790.56;4971240;28;20100;-75
2022/09/26 08:22:44;;;;;;;7.57;5.35;;;;;;;-145.49;100.00;62790.56;4966996;28;20054;-75
2022/09/26 08:25:13;;;;;;;6.95;4.53;;;;;;;-145.49;100.00;62790.56;4966545;28;20031;-76
2022/09/26 08:27:58;;;;;;;4.38;3.97;;;;;;;-145.49;100.00;62790.56;4959926;28;20407;-74
2022/09/26 08:30:26;;;;;;;5.38;4.38;;;;;;;-145.49;100.00;62790.56;4951727;28;20035;-75
2022/09/26 08:33:00;;;;;;;6.07;4.97;;;;;;;-145.49;100.00;62790.56;4950656;28;20043;-74
2022/09/26 08:35:37;;;;;;;7.23;3.30;;;;;;;-145.49;100.00;62790.56;4950408;28;20499;-75
2022/09/26 08:38:16;;;;;;;7.47;3.72;;;;;;;-145.49;100.00;62790.56;4971479;28;20050;-74
2022/09/26 08:41:16;;;;;;;6.90;4.07;;;;;;;-145.49;100.00;62790.56;4950997;28;20046;-74
2022/09/26 08:44:27;;;;;;;5.20;3.45;;;;;;;-145.49;100.00;62790.56;4965704;28;20042;-75
2022/09/26 08:47:38;;;;;;;6.63;3.38;;;;;;;-145.49;100.00;62790.56;4974586;28;20053;-75
2022/09/26 08:50:34;;;;;;;4.95;3.65;;;;;;;-145.49;100.00;62790.56;4931411;28;20043;-75
2022/09/26 08:53:12;;;;;;;5.65;3.65;;;;;;;-145.49;100.00;62790.56;4969190;28;20039;-76
2022/09/26 08:55:47;;;;;;;4.20;2.95;;;;;;;-145.49;100.00;62790.56;4961609;28;20524;-75
2022/09/26 08:58:33;;;;;;;7.75;4.05;;;;;;;-145.49;100.00;62790.56;4985915;28;20047;-74
2022/09/26 09:01:03;;;;;;;4.53;3.58;;;;;;;-145.49;100.00;62790.56;4970426;28;20292;-74
2022/09/26 09:03:48;;;;;;;3.70;2.60;;;;;;;-145.49;100.00;62790.56;4964566;28;20114;-74
2022/09/26 09:06:16;;;;;;;4.32;3.17;;;;;;;-145.49;100.00;62790.56;4963634;28;20426;-75
2022/09/26 09:08:54;;;;;;;4.80;2.60;;;;;;;-145.49;100.00;62790.56;4974646;28;20048;-74
2022/09/26 09:11:41;;;;;;;3.75;2.42;;;;;;;-145.49;100.00;62790.56;4975217;28;20043;-74
2022/09/26 09:14:40;;;;;;;4.88;2.65;;;;;;;-145.49;100.00;62790.56;4937933;29;20046;-75
2022/09/26 09:17:58;;;;;;;6.60;2.45;;;;;;;-145.49;100.00;62790.56;4947921;28;20057;-75
2022/09/26 09:20:49;;;;;;;4.63;2.20;;;;;;;-145.49;100.00;62790.56;4958133;28;20039;-75
2022/09/26 09:23:52;;;;;;;3.70;2.28;;;;;;;-145.49;100.00;62790.56;4935467;29;20379;-75
2022/09/26 09:26:36;;;;;;;3.90;2.63;;;;;;;-145.49;100.00;62790.56;4960593;28;20035;-75
2022/09/26 09:29:24;;;;;;;3.40;2.75;;;;;;;-145.49;100.00;62790.56;4972308;28;20031;-75
2022/09/26 09:32:15;;;;;;;2.58;2.15;;;;;;;-145.49;100.00;62790.56;4941475;28;20035;-76
2022/09/26 09:35:19;;;;;;;6.07;3.25;;;;;;;-145.49;100.00;62790.56;4947755;28;20366;-75
2022/09/26 09:38:21;;;;;;;6.13;3.17;;;;;;;-145.49;100.00;62790.56;4937588;28;20035;-75
2022/09/26 09:41:16;;;;;;;8.85;4.00;;;;;;;-145.49;100.00;62790.56;4940209;28;20042;-74
2022/09/26 09:43:47;;;;;;;4.80;4.38;;;;;;;-145.49;100.00;62790.56;4975317;28;20042;-74
2022/09/26 09:46:31;;;;;;;6.80;5.03;;;;;;;-145.49;100.00;62790.56;4951934;28;20026;-74
2022/09/26 09:49:19;;;;;;;7.82;4.95;;;;;;;-145.49;100.00;62790.56;4970387;28;20038;-75
2022/09/26 09:51:47;;;;;;;5.63;3.60;;;;;;;-145.49;100.00;62790.56;4977774;28;20035;-75
2022/09/26 09:54:38;;;;;;;10.02;4.68;;;;;;;-145.49;100.00;62790.56;4970747;28;20046;-75
2022/09/26 09:57:28;;;;;;;3.85;3.38;;;;;;;-145.49;100.00;62790.56;4956513;28;20405;-74
2022/09/26 10:00:15;;;;;;;8.85;7.22;;;;;;;-145.49;100.00;62790.56;4962503;28;20042;-74
2022/09/26 10:03:00;;;;;;;6.45;5.95;;;;;;;-145.49;100.00;62790.56;4971049;28;20039;-76
2022/09/26 10:05:45;;;;;;;11.60;5.13;;;;;;;-145.49;100.00;62790.56;4967652;28;20050;-74
2022/09/26 10:08:35;;;;;;;5.78;4.22;;;;;;;-145.49;100.00;62790.56;4945863;28;20039;-74
2022/09/26 10:11:30;;;;;;;4.65;4.00;;;;;;;-145.49;100.00;62790.56;4972169;28;20049;-74
2022/09/26 10:14:04;;;;;;;7.30;5.85;;;;;;;-145.49;100.00;62790.56;4954515;28;20049;-75
2022/09/26 10:17:07;;;;;;;6.53;4.87;;;;;;;-145.49;100.00;62790.56;4951644;28;20039;-75
2022/09/26 10:19:37;;;;;;;4.82;3.20;;;;;;;-145.49;100.00;62790.56;4964145;28;20043;-76
2022/09/26 10:22:10;;;;;;;5.25;3.35;;;;;;;-145.49;100.00;62790.56;4938997;28;20402;-76
2022/09/26 10:24:39;;;;;;;5.10;3.00;;;;;;;-145.49;100.00;62790.56;4971846;28;20360;-75
2022/09/26 10:27:21;;;;;;;2.85;2.35;;;;;;;-145.49;100.00;62790.56;4948813;28;20043;-75
2022/09/26 10:30:16;;;;;;;6.05;4.05;;;;;;;-145.49;100.00;62790.56;4946255;28;20050;-75
2022/09/26 10:32:47;;;;;;;10.70;8.48;;;;;;;-145.49;100.00;62790.56;4957964;28;20043;-75
2022/09/26 10:35:43;;;;;;;4.43;2.78;;;;;;;-145.49;100.00;62790.56;4960869;28;20031;-75
2022/09/26 10:38:30;;;;;;;5.03;3.58;;;;;;;-145.49;100.00;62790.56;4962137;28;20517;-75
2022/09/26 10:41:05;;;;;;;7.82;4.30;;;;;;;-145.49;100.00;62790.56;4979948;28;20043;-75
2022/09/26 10:43:36;;;;;;;5.90;4.32;;;;;;;-145.49;100.00;62790.56;4973313;28;20369;-74
2022/09/26 10:46:25;;;;;;;4.93;3.38;;;;;;;-145.49;100.00;62790.56;4972623;28;20043;-75
2022/09/26 10:49:12;;;;;;;6.30;3.25;;;;;;;-145.49;100.00;62790.56;4944332;28;20039;-74
2022/09/26 10:51:54;;;;;;;3.92;2.58;;;;;;;-145.49;100.00;62790.56;4952567;28;20043;-75
2022/09/26 10:54:23;;;;;;;3.78;3.28;;;;;;;-145.49;100.00;62790.56;4963794;28;20043;-75
2022/09/26 10:56:58;;;;;;;6.13;3.35;;;;;;;-145.49;100.00;62790.56;4956168;28;20031;-75
2022/09/26 10:59:34;;;;;;;3.97;3.58;;;;;;;-145.49;100.00;62790.56;4966539;28;20513;-75
2022/09/26 11:02:02;;;;;;;3.97;2.85;;;;;;;-145.49;100.00;62790.56;4972499;28;20046;-75
2022/09/26 11:07:42;;;;;;;5.15;4.65;;;;;;;-145.49;100.00;62790.56;4990526;23;20057;-84
2022/09/26 11:10:35;;;;;;;13.90;3.45;;;;;;;-145.49;100.00;62790.56;4952032;28;20049;-83
2022/09/26 11:13:26;;;;;;;4.28;1.75;;;;;;;-145.49;100.00;62790.56;4999573;28;20536;-84
2022/09/26 11:16:12;;;;;;;3.55;2.35;;;;;;;-145.49;100.00;62790.56;4984403;28;20041;-84
2022/09/26 11:18:43;;;;;;;4.90;2.88;;;;;;;-145.49;100.00;62790.56;4993533;28;20076;-84
2022/09/26 11:21:27;;;;;;;2.17;1.70;;;;;;;-145.49;100.00;62790.56;4987418;28;20385;-84
2022/09/26 11:24:20;;;;;;;3.45;2.30;;;;;;;-145.49;100.00;62790.56;5004714;28;20046;-84
2022/09/26 11:27:03;;;;;;;2.37;1.93;;;;;;;-145.49;100.00;62790.56;4961084;28;20062;-83
2022/09/26 11:29:33;;;;;;;2.75;2.17;;;;;;;-145.49;100.00;62790.56;4981942;28;20046;-82
2022/09/26 11:32:04;;;;;;;4.03;2.08;;;;;;;-145.49;100.00;62790.56;4978021;28;20392;-83
2022/09/26 11:34:45;;;;;;;3.22;2.42;;;;;;;-145.49;100.00;62790.56;4991561;28;20484;-82
2022/09/26 11:37:29;;;;;;;3.65;1.55;;;;;;;-145.49;100.00;62790.56;4992176;28;20045;-84
2022/09/26 11:40:20;;;;;;;5.38;2.00;;;;;;;-145.49;100.00;62790.56;4992490;28;20042;-82
2022/09/26 11:43:04;;;;;;;7.28;2.97;;;;;;;-145.49;100.00;62790.56;4992821;28;20046;-82
2022/09/26 11:45:53;;;;;;;;;;;;;;;-145.49;100.00;62790.56;4991981;28;20041;-83
2022/09/26 11:49:03;;;;;;;10.60;2.05;;;;;;;-145.49;100.00;62790.56;4994160;28;20378;-85
2022/09/26 11:51:59;;;;;;;4.80;2.22;;;;;;;-145.49;100.00;62790.56;4993196;28;20030;-82
2022/09/26 11:54:46;;;;;;;2.83;1.70;;;;;;;-145.49;100.00;62790.56;4995037;28;20043;-82
2022/09/26 11:57:34;;;;;;;9.00;1.98;;;;;;;-145.49;100.00;62790.56;4992078;28;20034;-82
2022/09/26 12:00:23;;;;;;;5.90;2.85;;;;;;;-145.49;100.00;62790.56;4991161;28;20049;-81
2022/09/26 12:03:19;;;;;;;5.15;1.85;;;;;;;-145.49;100.00;62790.56;4993241;28;20034;-82
2022/09/26 12:06:06;;;;;;;4.10;2.55;;;;;;;-145.49;100.00;62790.56;4991566;28;20034;-84
2022/09/26 12:08:39;;;;;;;4.15;2.50;;;;;;;-145.49;100.00;62790.56;4992548;28;20507;-81
2022/09/26 12:11:33;;;;;;;2.97;2.78;;;;;;;-145.49;100.00;62790.56;4985370;28;20401;-84